sensor_id;sensor_type;location;lat;lon;timestamp;temperature;humidity
4564;DHT22;2294;51.818;8.484;2023-06-10T00:00:49;18.50;1.00
4564;DHT22;2294;51.818;8.484;2023-06-10T00:03:17;18.40;99.90
4564;DHT22;2294;51.818;8.484;2023-06-10T00:05:44;18.50;99.90
4564;DHT22;2294;51.818;8.484;2023-06-10T00:08:12;18.50;99.90
4564;DHT22;2294;51.818;8.484;2023-06-10T00:10:41;18.40;99.90
4564;DHT22;2294;51.818;8.484;2023-06-10T00:13:08;18.30;99.90
4564;DHT22;2294;51.818;8.484;2023-06-10T00:15:36;18.20;99.90
4564;DHT22;2294;51.818;8.484;2023-06-10T00:18:03;18.20;99.90
4564;DHT22;2294;51.818;8.484;2023-06-10T00:20:31;18.20;99.90
4564;DHT22;2294;51.818;8.484;2023-06-10T00:22:58;18.10;99.90
4564;DHT22;2294;51.818;8.484;2023-06-10T00:25:28;17.90;99.90
4564;DHT22;2294;51.818;8.484;2023-06-10T00:27:55;17.70;1.00
4564;DHT22;2294;51.818;8.484;2023-06-10T00:30:22;17.50;14.60
4564;DHT22;2294;51.818;8.484;2023-06-10T00:32:49;17.60;99.90
4564;DHT22;2294;51.818;8.484;2023-06-10T00:35:15;17.50;99.90
4564;DHT22;2294;51.818;8.484;2023-06-10T00:37:42;17.50;99.90
4564;DHT22;2294;51.818;8.484;2023-06-10T00:40:10;17.50;99.90
4564;DHT22;2294;51.818;8.484;2023-06-10T00:42:39;17.60;1.00
4564;DHT22;2294;51.818;8.484;2023-06-10T00:45:09;17.50;1.00
4564;DHT22;2294;51.818;8.484;2023-06-10T00:47:36;17.50;1.00
4564;DHT22;2294;51.818;8.484;2023-06-10T00:50:03;17.50;1.00
4564;DHT22;2294;51.818;8.484;2023-06-10T00:52:30;17.50;1.00
4564;DHT22;2294;51.818;8.484;2023-06-10T00:54:57;17.40;1.00
4564;DHT22;2294;51.818;8.484;2023-06-10T00:57:25;17.10;99.90
4564;DHT22;2294;51.818;8.484;2023-06-10T00:59:54;17.20;1.00
4564;DHT22;2294;51.818;8.484;2023-06-10T01:02:21;17.20;1.00
4564;DHT22;2294;51.818;8.484;2023-06-10T01:04:48;17.20;1.00
4564;DHT22;2294;51.818;8.484;2023-06-10T01:07:20;17.20;1.00
4564;DHT22;2294;51.818;8.484;2023-06-10T01:09:54;17.10;1.00
4564;DHT22;2294;51.818;8.484;2023-06-10T01:12:29;17.00;1.00
4564;DHT22;2294;51.818;8.484;2023-06-10T01:14:59;16.70;99.90
4564;DHT22;2294;51.818;8.484;2023-06-10T01:17:27;16.80;1.00
4564;DHT22;2294;51.818;8.484;2023-06-10T01:19:56;16.90;1.00
4564;DHT22;2294;51.818;8.484;2023-06-10T01:22:25;16.90;1.00
4564;DHT22;2294;51.818;8.484;2023-06-10T01:24:54;16.70;1.00
4564;DHT22;2294;51.818;8.484;2023-06-10T01:27:26;16.80;1.00
4564;DHT22;2294;51.818;8.484;2023-06-10T01:29:59;16.80;1.00
4564;DHT22;2294;51.818;8.484;2023-06-10T01:32:32;16.80;1.00
4564;DHT22;2294;51.818;8.484;2023-06-10T01:35:02;16.70;1.00
4564;DHT22;2294;51.818;8.484;2023-06-10T01:37:31;16.50;99.90
4564;DHT22;2294;51.818;8.484;2023-06-10T01:39:59;16.60;1.00
4564;DHT22;2294;51.818;8.484;2023-06-10T01:42:27;16.50;1.00
4564;DHT22;2294;51.818;8.484;2023-06-10T01:44:54;16.50;1.00
4564;DHT22;2294;51.818;8.484;2023-06-10T01:47:22;16.50;36.70
4564;DHT22;2294;51.818;8.484;2023-06-10T01:49:48;16.60;99.90
4564;DHT22;2294;51.818;8.484;2023-06-10T01:52:15;16.60;1.00
4564;DHT22;2294;51.818;8.484;2023-06-10T01:54:44;16.60;1.00
4564;DHT22;2294;51.818;8.484;2023-06-10T01:57:11;16.50;1.00
4564;DHT22;2294;51.818;8.484;2023-06-10T01:59:38;16.40;1.00
4564;DHT22;2294;51.818;8.484;2023-06-10T02:02:05;16.40;46.40
4564;DHT22;2294;51.818;8.484;2023-06-10T02:04:32;16.30;99.90
4564;DHT22;2294;51.818;8.484;2023-06-10T02:06:59;16.30;99.90
4564;DHT22;2294;51.818;8.484;2023-06-10T02:09:29;16.30;99.90
4564;DHT22;2294;51.818;8.484;2023-06-10T02:11:58;16.20;99.90
4564;DHT22;2294;51.818;8.484;2023-06-10T02:14:25;16.00;1.00
4564;DHT22;2294;51.818;8.484;2023-06-10T02:16:52;16.10;99.90
4564;DHT22;2294;51.818;8.484;2023-06-10T02:19:22;16.20;99.90
4564;DHT22;2294;51.818;8.484;2023-06-10T02:21:49;16.20;1.00
4564;DHT22;2294;51.818;8.484;2023-06-10T02:24:16;16.20;1.00
4564;DHT22;2294;51.818;8.484;2023-06-10T02:26:43;16.00;98.80
4564;DHT22;2294;51.818;8.484;2023-06-10T02:29:12;16.10;99.90
4564;DHT22;2294;51.818;8.484;2023-06-10T02:31:38;16.10;99.90
4564;DHT22;2294;51.818;8.484;2023-06-10T02:34:06;16.00;99.90
4564;DHT22;2294;51.818;8.484;2023-06-10T02:36:34;16.00;1.00
4564;DHT22;2294;51.818;8.484;2023-06-10T02:39:01;15.80;1.00
4564;DHT22;2294;51.818;8.484;2023-06-10T02:41:29;15.60;1.00
4564;DHT22;2294;51.818;8.484;2023-06-10T02:43:56;15.90;1.00
4564;DHT22;2294;51.818;8.484;2023-06-10T02:46:24;15.90;1.00
4564;DHT22;2294;51.818;8.484;2023-06-10T02:48:54;15.80;1.00
4564;DHT22;2294;51.818;8.484;2023-06-10T02:51:21;15.60;26.20
4564;DHT22;2294;51.818;8.484;2023-06-10T02:53:47;15.60;99.90
4564;DHT22;2294;51.818;8.484;2023-06-10T02:56:16;15.60;1.00
4564;DHT22;2294;51.818;8.484;2023-06-10T02:58:43;15.60;1.00
4564;DHT22;2294;51.818;8.484;2023-06-10T03:01:11;15.70;1.00
4564;DHT22;2294;51.818;8.484;2023-06-10T03:03:40;15.60;99.90
4564;DHT22;2294;51.818;8.484;2023-06-10T03:06:09;15.60;99.90
4564;DHT22;2294;51.818;8.484;2023-06-10T03:08:36;15.70;99.90
4564;DHT22;2294;51.818;8.484;2023-06-10T03:11:03;15.70;1.00
4564;DHT22;2294;51.818;8.484;2023-06-10T03:13:30;15.80;1.00
4564;DHT22;2294;51.818;8.484;2023-06-10T03:15:57;15.80;99.90
4564;DHT22;2294;51.818;8.484;2023-06-10T03:18:26;15.70;1.00
4564;DHT22;2294;51.818;8.484;2023-06-10T03:20:54;15.80;99.90
4564;DHT22;2294;51.818;8.484;2023-06-10T03:23:22;15.70;26.30
4564;DHT22;2294;51.818;8.484;2023-06-10T03:25:49;15.70;1.00
4564;DHT22;2294;51.818;8.484;2023-06-10T03:28:15;15.80;99.90
4564;DHT22;2294;51.818;8.484;2023-06-10T03:30:42;15.70;27.00
4564;DHT22;2294;51.818;8.484;2023-06-10T03:33:09;15.80;1.00
4564;DHT22;2294;51.818;8.484;2023-06-10T03:35:36;15.80;99.90
4564;DHT22;2294;51.818;8.484;2023-06-10T03:38:04;15.90;99.90
4564;DHT22;2294;51.818;8.484;2023-06-10T03:40:31;16.00;1.00
4564;DHT22;2294;51.818;8.484;2023-06-10T03:42:58;16.10;50.70
4564;DHT22;2294;51.818;8.484;2023-06-10T03:45:25;16.10;99.90
4564;DHT22;2294;51.818;8.484;2023-06-10T03:47:54;16.10;1.00
4564;DHT22;2294;51.818;8.484;2023-06-10T03:50:21;16.20;1.00
4564;DHT22;2294;51.818;8.484;2023-06-10T03:52:49;16.10;1.00
4564;DHT22;2294;51.818;8.484;2023-06-10T03:55:17;16.10;1.00
4564;DHT22;2294;51.818;8.484;2023-06-10T03:57:47;16.00;1.00
4564;DHT22;2294;51.818;8.484;2023-06-10T04:00:15;16.10;1.00
4564;DHT22;2294;51.818;8.484;2023-06-10T04:02:43;16.00;1.00
4564;DHT22;2294;51.818;8.484;2023-06-10T04:05:13;16.00;99.90
4564;DHT22;2294;51.818;8.484;2023-06-10T04:07:40;16.10;99.90
4564;DHT22;2294;51.818;8.484;2023-06-10T04:10:08;16.20;99.90
4564;DHT22;2294;51.818;8.484;2023-06-10T04:12:37;16.20;99.90
4564;DHT22;2294;51.818;8.484;2023-06-10T04:15:05;16.20;99.90
4564;DHT22;2294;51.818;8.484;2023-06-10T04:17:32;16.20;99.90
4564;DHT22;2294;51.818;8.484;2023-06-10T04:19:59;16.30;99.90
4564;DHT22;2294;51.818;8.484;2023-06-10T04:22:26;16.50;24.50
4564;DHT22;2294;51.818;8.484;2023-06-10T04:24:53;16.30;1.00
4564;DHT22;2294;51.818;8.484;2023-06-10T04:27:20;16.30;1.00
4564;DHT22;2294;51.818;8.484;2023-06-10T04:29:48;16.40;99.90
4564;DHT22;2294;51.818;8.484;2023-06-10T04:32:15;16.50;99.90
4564;DHT22;2294;51.818;8.484;2023-06-10T04:37:18;16.70;99.90
4564;DHT22;2294;51.818;8.484;2023-06-10T04:39:45;16.70;99.90
4564;DHT22;2294;51.818;8.484;2023-06-10T04:42:12;16.70;99.90
4564;DHT22;2294;51.818;8.484;2023-06-10T04:44:39;16.80;99.90
4564;DHT22;2294;51.818;8.484;2023-06-10T04:47:07;16.90;99.90
4564;DHT22;2294;51.818;8.484;2023-06-10T04:49:34;16.90;99.90
4564;DHT22;2294;51.818;8.484;2023-06-10T04:52:02;17.00;99.90
4564;DHT22;2294;51.818;8.484;2023-06-10T04:54:30;17.00;99.90
4564;DHT22;2294;51.818;8.484;2023-06-10T04:56:58;17.10;99.90
4564;DHT22;2294;51.818;8.484;2023-06-10T04:59:25;17.20;99.90
4564;DHT22;2294;51.818;8.484;2023-06-10T05:01:52;17.20;99.90
4564;DHT22;2294;51.818;8.484;2023-06-10T05:04:23;17.20;99.90
4564;DHT22;2294;51.818;8.484;2023-06-10T05:06:50;17.30;51.00
4564;DHT22;2294;51.818;8.484;2023-06-10T05:09:17;17.40;1.00
4564;DHT22;2294;51.818;8.484;2023-06-10T05:11:44;17.40;1.00
4564;DHT22;2294;51.818;8.484;2023-06-10T05:14:12;17.50;1.00
4564;DHT22;2294;51.818;8.484;2023-06-10T05:16:38;17.60;1.00
4564;DHT22;2294;51.818;8.484;2023-06-10T05:19:05;17.70;1.00
4564;DHT22;2294;51.818;8.484;2023-06-10T05:21:34;17.70;1.00
4564;DHT22;2294;51.818;8.484;2023-06-10T05:24:00;17.90;99.90
4564;DHT22;2294;51.818;8.484;2023-06-10T05:26:27;17.80;99.90
4564;DHT22;2294;51.818;8.484;2023-06-10T05:28:57;17.90;99.90
4564;DHT22;2294;51.818;8.484;2023-06-10T05:31:24;18.10;1.00
4564;DHT22;2294;51.818;8.484;2023-06-10T05:33:51;18.10;1.00
4564;DHT22;2294;51.818;8.484;2023-06-10T05:36:18;18.10;99.80
4564;DHT22;2294;51.818;8.484;2023-06-10T05:38:46;18.10;99.90
4564;DHT22;2294;51.818;8.484;2023-06-10T05:41:13;18.30;1.00
4564;DHT22;2294;51.818;8.484;2023-06-10T05:43:40;18.30;1.00
4564;DHT22;2294;51.818;8.484;2023-06-10T05:46:07;18.50;1.00
4564;DHT22;2294;51.818;8.484;2023-06-10T05:48:33;18.50;99.90
4564;DHT22;2294;51.818;8.484;2023-06-10T05:51:00;18.60;99.90
4564;DHT22;2294;51.818;8.484;2023-06-10T05:53:27;18.50;1.00
4564;DHT22;2294;51.818;8.484;2023-06-10T05:55:56;18.70;99.90
4564;DHT22;2294;51.818;8.484;2023-06-10T05:58:24;18.70;76.80
4564;DHT22;2294;51.818;8.484;2023-06-10T06:00:51;18.80;95.90
4564;DHT22;2294;51.818;8.484;2023-06-10T06:03:18;18.80;99.90
4564;DHT22;2294;51.818;8.484;2023-06-10T06:05:44;18.80;99.90
4564;DHT22;2294;51.818;8.484;2023-06-10T06:08:11;18.90;54.10
4564;DHT22;2294;51.818;8.484;2023-06-10T06:10:43;19.00;99.90
4564;DHT22;2294;51.818;8.484;2023-06-10T06:13:11;19.30;76.00
4564;DHT22;2294;51.818;8.484;2023-06-10T06:15:38;19.40;1.00
4564;DHT22;2294;51.818;8.484;2023-06-10T06:18:05;19.30;1.00
4564;DHT22;2294;51.818;8.484;2023-06-10T06:20:32;19.50;1.00
4564;DHT22;2294;51.818;8.484;2023-06-10T06:22:59;19.50;1.00
4564;DHT22;2294;51.818;8.484;2023-06-10T06:25:26;19.40;1.00
4564;DHT22;2294;51.818;8.484;2023-06-10T06:27:53;19.60;1.00
4564;DHT22;2294;51.818;8.484;2023-06-10T06:30:21;19.80;99.90
4564;DHT22;2294;51.818;8.484;2023-06-10T06:32:48;19.80;99.90
4564;DHT22;2294;51.818;8.484;2023-06-10T06:35:15;19.90;99.90
4564;DHT22;2294;51.818;8.484;2023-06-10T06:37:42;20.10;99.90
4564;DHT22;2294;51.818;8.484;2023-06-10T06:40:09;20.30;99.90
4564;DHT22;2294;51.818;8.484;2023-06-10T06:42:36;20.30;99.90
4564;DHT22;2294;51.818;8.484;2023-06-10T06:45:04;20.30;99.90
4564;DHT22;2294;51.818;8.484;2023-06-10T06:47:32;20.30;94.60
4564;DHT22;2294;51.818;8.484;2023-06-10T06:49:59;20.40;16.40
4564;DHT22;2294;51.818;8.484;2023-06-10T06:52:27;20.80;2.30
4564;DHT22;2294;51.818;8.484;2023-06-10T06:54:54;20.50;1.00
4564;DHT22;2294;51.818;8.484;2023-06-10T06:57:21;20.30;1.00
4564;DHT22;2294;51.818;8.484;2023-06-10T06:59:48;20.50;1.00
4564;DHT22;2294;51.818;8.484;2023-06-10T07:02:15;20.50;1.00
4564;DHT22;2294;51.818;8.484;2023-06-10T07:04:45;20.80;1.00
4564;DHT22;2294;51.818;8.484;2023-06-10T07:07:14;21.00;1.00
4564;DHT22;2294;51.818;8.484;2023-06-10T07:09:41;21.20;1.00
4564;DHT22;2294;51.818;8.484;2023-06-10T07:12:09;21.20;1.00
4564;DHT22;2294;51.818;8.484;2023-06-10T07:14:36;21.10;1.00
4564;DHT22;2294;51.818;8.484;2023-06-10T07:17:03;21.40;1.00
4564;DHT22;2294;51.818;8.484;2023-06-10T07:19:30;21.20;1.00
4564;DHT22;2294;51.818;8.484;2023-06-10T07:21:58;21.30;1.00
4564;DHT22;2294;51.818;8.484;2023-06-10T07:24:25;21.50;1.00
4564;DHT22;2294;51.818;8.484;2023-06-10T07:26:52;21.60;1.00
4564;DHT22;2294;51.818;8.484;2023-06-10T07:29:19;21.50;1.00
4564;DHT22;2294;51.818;8.484;2023-06-10T07:31:45;21.50;1.00
4564;DHT22;2294;51.818;8.484;2023-06-10T07:34:12;21.50;1.00
4564;DHT22;2294;51.818;8.484;2023-06-10T07:36:39;21.90;1.00
4564;DHT22;2294;51.818;8.484;2023-06-10T07:39:07;21.80;1.00
4564;DHT22;2294;51.818;8.484;2023-06-10T07:41:35;21.80;1.00
4564;DHT22;2294;51.818;8.484;2023-06-10T07:44:02;22.10;1.00
4564;DHT22;2294;51.818;8.484;2023-06-10T07:46:29;22.30;1.00
4564;DHT22;2294;51.818;8.484;2023-06-10T07:48:56;22.20;1.00
4564;DHT22;2294;51.818;8.484;2023-06-10T07:51:23;22.40;99.90
4564;DHT22;2294;51.818;8.484;2023-06-10T07:53:50;22.20;99.90
4564;DHT22;2294;51.818;8.484;2023-06-10T07:56:18;22.40;99.90
4564;DHT22;2294;51.818;8.484;2023-06-10T07:58:47;22.50;99.90
4564;DHT22;2294;51.818;8.484;2023-06-10T08:01:14;22.50;99.90
4564;DHT22;2294;51.818;8.484;2023-06-10T08:03:40;22.80;99.90
4564;DHT22;2294;51.818;8.484;2023-06-10T08:06:07;22.70;99.90
4564;DHT22;2294;51.818;8.484;2023-06-10T08:08:36;22.70;99.90
4564;DHT22;2294;51.818;8.484;2023-06-10T08:11:07;22.90;99.90
4564;DHT22;2294;51.818;8.484;2023-06-10T08:13:35;23.00;99.90
4564;DHT22;2294;51.818;8.484;2023-06-10T08:16:03;23.10;99.90
4564;DHT22;2294;51.818;8.484;2023-06-10T08:18:30;23.60;99.90
4564;DHT22;2294;51.818;8.484;2023-06-10T08:20:57;24.00;99.90
4564;DHT22;2294;51.818;8.484;2023-06-10T08:23:24;24.00;99.90
4564;DHT22;2294;51.818;8.484;2023-06-10T08:25:51;23.90;99.90
4564;DHT22;2294;51.818;8.484;2023-06-10T08:28:18;24.00;99.90
4564;DHT22;2294;51.818;8.484;2023-06-10T08:30:47;24.20;99.90
4564;DHT22;2294;51.818;8.484;2023-06-10T08:33:14;24.40;99.90
4564;DHT22;2294;51.818;8.484;2023-06-10T08:35:40;24.40;99.90
4564;DHT22;2294;51.818;8.484;2023-06-10T08:38:07;24.30;99.90
4564;DHT22;2294;51.818;8.484;2023-06-10T08:40:34;24.50;99.90
4564;DHT22;2294;51.818;8.484;2023-06-10T08:43:06;24.00;99.90
4564;DHT22;2294;51.818;8.484;2023-06-10T08:45:35;24.10;99.90
4564;DHT22;2294;51.818;8.484;2023-06-10T08:48:04;24.40;99.90
4564;DHT22;2294;51.818;8.484;2023-06-10T08:50:34;24.90;99.90
4564;DHT22;2294;51.818;8.484;2023-06-10T08:53:04;24.50;99.90
4564;DHT22;2294;51.818;8.484;2023-06-10T08:55:32;24.30;99.90
4564;DHT22;2294;51.818;8.484;2023-06-10T08:58:00;24.50;75.30
4564;DHT22;2294;51.818;8.484;2023-06-10T09:00:28;24.90;54.00
4564;DHT22;2294;51.818;8.484;2023-06-10T09:02:55;24.80;52.00
4564;DHT22;2294;51.818;8.484;2023-06-10T09:05:24;24.60;63.00
4564;DHT22;2294;51.818;8.484;2023-06-10T09:07:52;24.90;19.50
4564;DHT22;2294;51.818;8.484;2023-06-10T09:10:19;24.90;7.80
4564;DHT22;2294;51.818;8.484;2023-06-10T09:12:46;22.80;1.00
4564;DHT22;2294;51.818;8.484;2023-06-10T09:15:13;24.90;8.00
4564;DHT22;2294;51.818;8.484;2023-06-10T09:17:43;24.70;1.00
4564;DHT22;2294;51.818;8.484;2023-06-10T09:20:11;24.70;11.90
4564;DHT22;2294;51.818;8.484;2023-06-10T09:22:40;24.80;1.00
4564;DHT22;2294;51.818;8.484;2023-06-10T09:25:10;24.90;4.30
4564;DHT22;2294;51.818;8.484;2023-06-10T09:27:47;24.90;1.00
4564;DHT22;2294;51.818;8.484;2023-06-10T09:30:26;25.40;1.00
4564;DHT22;2294;51.818;8.484;2023-06-10T09:32:53;25.20;1.00
4564;DHT22;2294;51.818;8.484;2023-06-10T09:35:22;25.10;1.00
4564;DHT22;2294;51.818;8.484;2023-06-10T09:37:51;25.40;1.00
4564;DHT22;2294;51.818;8.484;2023-06-10T09:40:19;25.20;1.00
4564;DHT22;2294;51.818;8.484;2023-06-10T09:42:46;25.30;1.00
4564;DHT22;2294;51.818;8.484;2023-06-10T09:45:19;25.40;1.00
4564;DHT22;2294;51.818;8.484;2023-06-10T09:47:46;25.30;1.00
4564;DHT22;2294;51.818;8.484;2023-06-10T09:50:13;25.90;1.00
4564;DHT22;2294;51.818;8.484;2023-06-10T09:52:40;25.70;1.00
4564;DHT22;2294;51.818;8.484;2023-06-10T09:55:09;25.30;1.00
4564;DHT22;2294;51.818;8.484;2023-06-10T09:57:37;25.80;1.00
4564;DHT22;2294;51.818;8.484;2023-06-10T10:00:06;26.20;1.00
4564;DHT22;2294;51.818;8.484;2023-06-10T10:02:44;26.00;1.00
4564;DHT22;2294;51.818;8.484;2023-06-10T10:05:12;25.80;1.00
4564;DHT22;2294;51.818;8.484;2023-06-10T10:07:39;25.70;1.00
4564;DHT22;2294;51.818;8.484;2023-06-10T10:10:07;25.80;1.00
4564;DHT22;2294;51.818;8.484;2023-06-10T10:12:36;25.90;1.00
4564;DHT22;2294;51.818;8.484;2023-06-10T10:15:06;25.70;1.00
4564;DHT22;2294;51.818;8.484;2023-06-10T10:17:34;25.80;1.00
4564;DHT22;2294;51.818;8.484;2023-06-10T10:20:03;26.00;1.00
4564;DHT22;2294;51.818;8.484;2023-06-10T10:22:38;26.30;1.00
4564;DHT22;2294;51.818;8.484;2023-06-10T10:25:10;26.40;1.00
4564;DHT22;2294;51.818;8.484;2023-06-10T10:27:43;26.80;1.00
4564;DHT22;2294;51.818;8.484;2023-06-10T10:30:12;26.70;1.00
4564;DHT22;2294;51.818;8.484;2023-06-10T10:32:43;26.80;1.00
4564;DHT22;2294;51.818;8.484;2023-06-10T10:35:17;26.70;1.00
4564;DHT22;2294;51.818;8.484;2023-06-10T10:37:44;26.70;1.00
4564;DHT22;2294;51.818;8.484;2023-06-10T10:40:12;26.70;1.00
4564;DHT22;2294;51.818;8.484;2023-06-10T10:42:42;26.90;1.00
4564;DHT22;2294;51.818;8.484;2023-06-10T10:45:10;26.80;1.00
4564;DHT22;2294;51.818;8.484;2023-06-10T10:47:38;26.70;1.00
4564;DHT22;2294;51.818;8.484;2023-06-10T10:50:14;27.00;1.00
4564;DHT22;2294;51.818;8.484;2023-06-10T10:52:52;27.00;1.00
4564;DHT22;2294;51.818;8.484;2023-06-10T10:55:20;27.10;1.00
4564;DHT22;2294;51.818;8.484;2023-06-10T10:57:55;26.90;1.00
4564;DHT22;2294;51.818;8.484;2023-06-10T11:00:29;27.30;1.00
4564;DHT22;2294;51.818;8.484;2023-06-10T11:02:59;27.10;1.00
4564;DHT22;2294;51.818;8.484;2023-06-10T11:05:36;26.80;1.00
4564;DHT22;2294;51.818;8.484;2023-06-10T11:08:04;27.40;1.00
4564;DHT22;2294;51.818;8.484;2023-06-10T11:10:31;27.40;1.00
4564;DHT22;2294;51.818;8.484;2023-06-10T11:13:01;27.40;1.00
4564;DHT22;2294;51.818;8.484;2023-06-10T11:15:32;27.60;1.00
4564;DHT22;2294;51.818;8.484;2023-06-10T11:18:13;27.40;1.00
4564;DHT22;2294;51.818;8.484;2023-06-10T11:20:57;27.40;1.00
4564;DHT22;2294;51.818;8.484;2023-06-10T11:23:35;27.50;1.00
4564;DHT22;2294;51.818;8.484;2023-06-10T11:26:22;27.50;1.00
4564;DHT22;2294;51.818;8.484;2023-06-10T11:29:06;28.00;1.00
4564;DHT22;2294;51.818;8.484;2023-06-10T11:31:39;27.80;1.00
4564;DHT22;2294;51.818;8.484;2023-06-10T11:34:07;27.70;1.00
4564;DHT22;2294;51.818;8.484;2023-06-10T11:36:38;28.00;1.00
4564;DHT22;2294;51.818;8.484;2023-06-10T11:39:10;28.10;1.00
4564;DHT22;2294;51.818;8.484;2023-06-10T11:41:39;27.60;1.00
4564;DHT22;2294;51.818;8.484;2023-06-10T11:44:12;28.10;1.00
4564;DHT22;2294;51.818;8.484;2023-06-10T11:46:40;28.20;1.00
4564;DHT22;2294;51.818;8.484;2023-06-10T11:49:08;27.90;1.00
4564;DHT22;2294;51.818;8.484;2023-06-10T11:51:36;28.00;1.00
4564;DHT22;2294;51.818;8.484;2023-06-10T11:54:04;27.80;1.00
4564;DHT22;2294;51.818;8.484;2023-06-10T11:56:32;28.00;1.00
4564;DHT22;2294;51.818;8.484;2023-06-10T11:59:00;28.00;1.00
4564;DHT22;2294;51.818;8.484;2023-06-10T12:01:32;28.30;1.00
4564;DHT22;2294;51.818;8.484;2023-06-10T12:04:01;28.20;1.00
4564;DHT22;2294;51.818;8.484;2023-06-10T12:06:38;28.90;1.00
4564;DHT22;2294;51.818;8.484;2023-06-10T12:09:05;28.70;1.00
4564;DHT22;2294;51.818;8.484;2023-06-10T12:11:32;28.90;1.00
4564;DHT22;2294;51.818;8.484;2023-06-10T12:13:59;28.50;1.00
4564;DHT22;2294;51.818;8.484;2023-06-10T12:16:28;28.80;1.00
4564;DHT22;2294;51.818;8.484;2023-06-10T12:19:01;28.60;1.00
4564;DHT22;2294;51.818;8.484;2023-06-10T12:21:29;28.50;1.00
4564;DHT22;2294;51.818;8.484;2023-06-10T12:24:14;28.60;1.00
4564;DHT22;2294;51.818;8.484;2023-06-10T12:26:43;28.90;1.00
4564;DHT22;2294;51.818;8.484;2023-06-10T12:29:18;28.70;1.00
4564;DHT22;2294;51.818;8.484;2023-06-10T12:32:00;28.60;1.00
4564;DHT22;2294;51.818;8.484;2023-06-10T12:34:34;28.70;1.00
4564;DHT22;2294;51.818;8.484;2023-06-10T12:37:02;29.10;1.00
4564;DHT22;2294;51.818;8.484;2023-06-10T12:39:30;29.00;1.00
4564;DHT22;2294;51.818;8.484;2023-06-10T12:41:58;28.80;1.00
4564;DHT22;2294;51.818;8.484;2023-06-10T12:44:32;28.50;1.00
4564;DHT22;2294;51.818;8.484;2023-06-10T12:47:00;28.60;1.00
4564;DHT22;2294;51.818;8.484;2023-06-10T12:49:27;28.70;1.00
4564;DHT22;2294;51.818;8.484;2023-06-10T12:51:55;28.80;1.00
4564;DHT22;2294;51.818;8.484;2023-06-10T12:54:22;28.80;1.00
4564;DHT22;2294;51.818;8.484;2023-06-10T12:56:49;29.20;1.00
4564;DHT22;2294;51.818;8.484;2023-06-10T12:59:16;29.30;1.00
4564;DHT22;2294;51.818;8.484;2023-06-10T13:01:44;29.00;1.00
4564;DHT22;2294;51.818;8.484;2023-06-10T13:04:10;29.00;1.00
4564;DHT22;2294;51.818;8.484;2023-06-10T13:06:38;29.30;1.00
4564;DHT22;2294;51.818;8.484;2023-06-10T13:09:09;29.10;1.00
4564;DHT22;2294;51.818;8.484;2023-06-10T13:11:36;28.90;1.00
4564;DHT22;2294;51.818;8.484;2023-06-10T13:14:04;29.30;1.00
4564;DHT22;2294;51.818;8.484;2023-06-10T13:16:32;29.30;1.00
4564;DHT22;2294;51.818;8.484;2023-06-10T13:18:59;29.20;1.00
4564;DHT22;2294;51.818;8.484;2023-06-10T13:21:28;30.10;1.00
4564;DHT22;2294;51.818;8.484;2023-06-10T13:23:55;30.10;1.00
4564;DHT22;2294;51.818;8.484;2023-06-10T13:26:23;30.40;1.00
4564;DHT22;2294;51.818;8.484;2023-06-10T13:28:50;30.60;1.00
4564;DHT22;2294;51.818;8.484;2023-06-10T13:31:17;29.80;1.00
4564;DHT22;2294;51.818;8.484;2023-06-10T13:33:44;30.00;1.00
4564;DHT22;2294;51.818;8.484;2023-06-10T13:36:12;29.20;1.00
4564;DHT22;2294;51.818;8.484;2023-06-10T13:38:40;29.70;1.00
4564;DHT22;2294;51.818;8.484;2023-06-10T13:41:07;30.00;1.00
4564;DHT22;2294;51.818;8.484;2023-06-10T13:43:37;29.80;1.00
4564;DHT22;2294;51.818;8.484;2023-06-10T13:46:03;29.90;1.00
4564;DHT22;2294;51.818;8.484;2023-06-10T13:48:30;30.30;1.00
4564;DHT22;2294;51.818;8.484;2023-06-10T13:50:57;31.00;1.00
4564;DHT22;2294;51.818;8.484;2023-06-10T13:53:27;30.90;1.00
4564;DHT22;2294;51.818;8.484;2023-06-10T13:55:54;30.60;1.00
4564;DHT22;2294;51.818;8.484;2023-06-10T13:58:21;29.90;1.00
4564;DHT22;2294;51.818;8.484;2023-06-10T14:00:49;29.80;1.00
4564;DHT22;2294;51.818;8.484;2023-06-10T14:03:16;31.20;1.00
4564;DHT22;2294;51.818;8.484;2023-06-10T14:05:43;30.90;1.00
4564;DHT22;2294;51.818;8.484;2023-06-10T14:08:10;31.40;1.00
4564;DHT22;2294;51.818;8.484;2023-06-10T14:10:37;31.90;1.00
4564;DHT22;2294;51.818;8.484;2023-06-10T14:13:04;32.10;1.00
4564;DHT22;2294;51.818;8.484;2023-06-10T14:15:31;33.50;1.00
4564;DHT22;2294;51.818;8.484;2023-06-10T14:18:00;35.10;1.00
4564;DHT22;2294;51.818;8.484;2023-06-10T14:20:27;35.90;1.00
4564;DHT22;2294;51.818;8.484;2023-06-10T14:22:57;35.10;1.00
4564;DHT22;2294;51.818;8.484;2023-06-10T14:25:23;36.40;1.00
4564;DHT22;2294;51.818;8.484;2023-06-10T14:27:50;35.00;1.00
4564;DHT22;2294;51.818;8.484;2023-06-10T14:30:17;36.80;1.00
4564;DHT22;2294;51.818;8.484;2023-06-10T14:32:44;34.90;1.00
4564;DHT22;2294;51.818;8.484;2023-06-10T14:35:12;36.80;1.00
4564;DHT22;2294;51.818;8.484;2023-06-10T14:37:39;37.90;1.00
4564;DHT22;2294;51.818;8.484;2023-06-10T14:40:07;36.50;1.00
4564;DHT22;2294;51.818;8.484;2023-06-10T14:42:34;37.70;1.00
4564;DHT22;2294;51.818;8.484;2023-06-10T14:45:01;39.00;1.00
4564;DHT22;2294;51.818;8.484;2023-06-10T14:47:28;39.40;1.00
4564;DHT22;2294;51.818;8.484;2023-06-10T14:49:55;39.80;1.00
4564;DHT22;2294;51.818;8.484;2023-06-10T14:52:23;40.00;1.00
4564;DHT22;2294;51.818;8.484;2023-06-10T14:54:50;37.90;1.00
4564;DHT22;2294;51.818;8.484;2023-06-10T14:57:17;33.70;1.00
4564;DHT22;2294;51.818;8.484;2023-06-10T14:59:43;34.00;1.00
4564;DHT22;2294;51.818;8.484;2023-06-10T15:02:11;34.00;1.00
4564;DHT22;2294;51.818;8.484;2023-06-10T15:04:37;35.00;1.00
4564;DHT22;2294;51.818;8.484;2023-06-10T15:07:05;37.30;1.00
4564;DHT22;2294;51.818;8.484;2023-06-10T15:09:33;38.30;1.00
4564;DHT22;2294;51.818;8.484;2023-06-10T15:12:00;39.40;1.00
4564;DHT22;2294;51.818;8.484;2023-06-10T15:14:27;37.60;1.00
4564;DHT22;2294;51.818;8.484;2023-06-10T15:16:54;36.20;1.00
4564;DHT22;2294;51.818;8.484;2023-06-10T15:19:23;34.10;1.00
4564;DHT22;2294;51.818;8.484;2023-06-10T15:21:50;35.30;1.00
4564;DHT22;2294;51.818;8.484;2023-06-10T15:24:17;37.30;1.00
4564;DHT22;2294;51.818;8.484;2023-06-10T15:26:45;37.40;1.00
4564;DHT22;2294;51.818;8.484;2023-06-10T15:29:12;39.80;1.00
4564;DHT22;2294;51.818;8.484;2023-06-10T15:31:39;38.60;1.00
4564;DHT22;2294;51.818;8.484;2023-06-10T15:34:06;39.60;1.00
4564;DHT22;2294;51.818;8.484;2023-06-10T15:36:34;38.30;1.00
4564;DHT22;2294;51.818;8.484;2023-06-10T15:39:04;36.50;1.00
4564;DHT22;2294;51.818;8.484;2023-06-10T15:41:32;38.30;1.00
4564;DHT22;2294;51.818;8.484;2023-06-10T15:44:00;37.30;1.00
4564;DHT22;2294;51.818;8.484;2023-06-10T15:46:27;37.90;1.00
4564;DHT22;2294;51.818;8.484;2023-06-10T15:48:54;34.70;1.00
4564;DHT22;2294;51.818;8.484;2023-06-10T15:51:21;36.30;1.00
4564;DHT22;2294;51.818;8.484;2023-06-10T15:53:48;39.80;1.00
4564;DHT22;2294;51.818;8.484;2023-06-10T15:56:16;38.80;1.00
4564;DHT22;2294;51.818;8.484;2023-06-10T15:58:43;41.50;1.00
4564;DHT22;2294;51.818;8.484;2023-06-10T16:01:11;38.00;1.00
4564;DHT22;2294;51.818;8.484;2023-06-10T16:03:38;38.00;1.00
4564;DHT22;2294;51.818;8.484;2023-06-10T16:06:05;35.60;1.00
4564;DHT22;2294;51.818;8.484;2023-06-10T16:08:31;33.40;1.00
4564;DHT22;2294;51.818;8.484;2023-06-10T16:10:58;33.00;1.00
4564;DHT22;2294;51.818;8.484;2023-06-10T16:13:25;33.10;1.00
4564;DHT22;2294;51.818;8.484;2023-06-10T16:15:52;31.50;1.00
4564;DHT22;2294;51.818;8.484;2023-06-10T16:18:20;31.10;1.00
4564;DHT22;2294;51.818;8.484;2023-06-10T16:20:47;34.50;1.00